Time;durP1;ratioP1;P1;durP2;ratioP2;P2;SDS_P1;SDS_P2;PMS_P1;PMS_P2;Temp;Humidity;BMP_temperature;BMP_pressure;BME280_temperature;BME280_humidity;BME280_pressure;Samples;Min_cycle;Max_cycle;Signal;HPM_P1;HPM_P2
2022/12/30 00:01:00;;;;;;;10.03;4.33;;;;;;;;;;5032556;28;20469;-83
2022/12/30 00:03:28;;;;;;;10.83;5.73;;;;;;;;;;5033526;28;20483;-83
2022/12/30 00:05:54;;;;;;;13.67;5.80;;;;;;;;;;5037589;28;20817;-82
2022/12/30 00:11:05;;;;;;;12.87;5.43;;;;;;;;;;5035689;28;20448;-82
2022/12/30 00:33:09;;;;;;;20.50;6.03;;;;;;;;;;5038231;28;20512;-83
2022/12/30 00:35:38;;;;;;;17.10;5.23;;;;;;;;;;5037437;28;20453;-83
2022/12/30 00:38:04;;;;;;;19.77;6.93;;;;;;;;;;5035948;28;20859;-83
2022/12/30 00:40:31;;;;;;;20.30;7.57;;;;;;;;;;5036373;28;20472;-83
2022/12/30 00:43:08;;;;;;;12.20;6.67;;;;;;;;;;5016581;28;20472;-82
2022/12/30 00:45:36;;;;;;;26.77;7.90;;;;;;;;;;5014244;28;20453;-83
2022/12/30 00:56:15;;;;;;;23.13;7.30;;;;;;;;;;5014548;28;20430;-83
2022/12/30 00:58:42;;;;;;;22.87;5.67;;;;;;;;;;5017616;28;20495;-82
2022/12/30 01:01:08;;;;;;;14.47;5.67;;;;;;;;;;5017006;28;20469;-83
2022/12/30 01:03:34;;;;;;;26.07;6.03;;;;;;;;;;5016693;28;20477;-83
2022/12/30 01:06:06;;;;;;;13.43;4.90;;;;;;;;;;5017451;28;20473;-83
2022/12/30 01:08:33;;;;;;;13.10;4.87;;;;;;;;;;5022124;28;20524;-83
2022/12/30 01:10:59;;;;;;;18.23;5.73;;;;;;;;;;5019681;28;20446;-82
2022/12/30 01:13:25;;;;;;;13.07;5.20;;;;;;;;;;5019455;28;21038;-83
2022/12/30 01:15:52;;;;;;;14.50;5.43;;;;;;;;;;5019379;28;20573;-83
2022/12/30 01:18:18;;;;;;;16.13;4.80;;;;;;;;;;5016940;28;20493;-82
2022/12/30 01:20:45;;;;;;;14.23;4.67;;;;;;;;;;5023273;28;20445;-83
2022/12/30 01:23:13;;;;;;;15.30;5.43;;;;;;;;;;5021063;28;20470;-82
2022/12/30 01:25:39;;;;;;;15.97;5.03;;;;;;;;;;5018916;28;20450;-83
2022/12/30 01:28:06;;;;;;;13.37;5.33;;;;;;;;;;5022020;28;20458;-83
2022/12/30 01:30:32;;;;;;;13.70;5.20;;;;;;;;;;5016500;28;20470;-82
2022/12/30 01:32:59;;;;;;;14.93;5.40;;;;;;;;;;5021991;28;20480;-82
2022/12/30 01:35:25;;;;;;;17.20;5.90;;;;;;;;;;5017395;28;20525;-82
2022/12/30 01:37:51;;;;;;;21.33;6.43;;;;;;;;;;5015008;28;21032;-83
2022/12/30 01:40:19;;;;;;;12.20;5.10;;;;;;;;;;5014689;28;20458;-83
2022/12/30 01:42:46;;;;;;;16.67;6.50;;;;;;;;;;5017368;28;20476;-82
2022/12/30 01:45:18;;;;;;;23.47;6.20;;;;;;;;;;5017734;28;20470;-82
2022/12/30 01:47:48;;;;;;;18.60;6.27;;;;;;;;;;5018215;28;20481;-83
2022/12/30 01:50:20;;;;;;;17.07;6.60;;;;;;;;;;5019745;28;20465;-82
2022/12/30 01:52:49;;;;;;;19.67;6.20;;;;;;;;;;5021641;28;20461;-82
2022/12/30 01:55:18;;;;;;;19.03;6.87;;;;;;;;;;5021100;28;20477;-82
2022/12/30 01:57:48;;;;;;;13.23;5.53;;;;;;;;;;5015656;28;20508;-83
2022/12/30 02:00:14;;;;;;;14.07;6.07;;;;;;;;;;5018007;28;20513;-83
2022/12/30 02:02:41;;;;;;;23.30;6.73;;;;;;;;;;5019380;28;20483;-83
2022/12/30 02:05:08;;;;;;;22.20;6.07;;;;;;;;;;5020701;28;20446;-83
2022/12/30 02:07:38;;;;;;;17.23;5.13;;;;;;;;;;5019161;28;20469;-83
2022/12/30 02:10:07;;;;;;;16.67;5.40;;;;;;;;;;5018743;28;20524;-83
2022/12/30 02:12:33;;;;;;;19.13;5.43;;;;;;;;;;5016408;28;20529;-82
2022/12/30 02:15:01;;;;;;;15.17;5.70;;;;;;;;;;5016360;28;20452;-83
2022/12/30 02:17:33;;;;;;;19.03;7.00;;;;;;;;;;5017116;28;20497;-82
2022/12/30 02:20:18;;;;;;;15.03;5.50;;;;;;;;;;5017285;28;20460;-83
2022/12/30 02:22:59;;;;;;;13.00;5.03;;;;;;;;;;5018672;28;20470;-83
2022/12/30 02:25:50;;;;;;;19.43;6.10;;;;;;;;;;5014109;28;20461;-82
2022/12/30 02:28:38;;;;;;;15.60;6.07;;;;;;;;;;5016901;28;20478;-83
2022/12/30 02:31:19;;;;;;;18.87;5.63;;;;;;;;;;5016587;28;20436;-83
2022/12/30 02:33:53;;;;;;;15.37;6.10;;;;;;;;;;5023281;28;20463;-82
2022/12/30 02:36:23;;;;;;;22.53;7.10;;;;;;;;;;5017490;28;20473;-83
2022/12/30 02:38:53;;;;;;;14.50;5.50;;;;;;;;;;5013792;28;21041;-82
2022/12/30 02:46:57;;;;;;;19.63;5.93;;;;;;;;;;5018454;28;20496;-82
2022/12/30 02:49:25;;;;;;;23.90;6.00;;;;;;;;;;5019592;28;21002;-82
2022/12/30 02:54:36;;;;;;;15.30;5.57;;;;;;;;;;5017863;28;20430;-82
2022/12/30 02:57:03;;;;;;;18.40;5.17;;;;;;;;;;5026330;28;20575;-83
2022/12/30 03:05:15;;;;;;;25.70;6.60;;;;;;;;;;5035363;28;21023;-83
2022/12/30 03:07:46;;;;;;;16.40;5.43;;;;;;;;;;5040895;28;21009;-83
2022/12/30 03:12:57;;;;;;;21.50;6.10;;;;;;;;;;5011907;28;20845;-82
2022/12/30 03:15:26;;;;;;;15.10;6.10;;;;;;;;;;5036844;28;20981;-82
2022/12/30 03:17:53;;;;;;;16.00;6.40;;;;;;;;;;5034098;28;20473;-83
2022/12/30 03:20:22;;;;;;;24.17;6.03;;;;;;;;;;5035179;28;20833;-83
2022/12/30 03:28:19;;;;;;;18.47;5.47;;;;;;;;;;5034338;28;20487;-83
2022/12/30 03:30:47;;;;;;;20.43;8.00;;;;;;;;;;5033531;28;20447;-82
2022/12/30 03:33:14;;;;;;;22.03;5.63;;;;;;;;;;5036329;28;20986;-83
2022/12/30 03:35:45;;;;;;;14.23;6.83;;;;;;;;;;5034505;28;20457;-83
2022/12/30 03:38:13;;;;;;;18.17;6.27;;;;;;;;;;5037262;28;20485;-83
2022/12/30 03:40:41;;;;;;;13.10;4.33;;;;;;;;;;5038686;28;20471;-83
2022/12/30 03:43:08;;;;;;;11.90;5.53;;;;;;;;;;5041788;28;20473;-83
2022/12/30 03:45:34;;;;;;;17.60;4.17;;;;;;;;;;5039566;28;20511;-83
2022/12/30 03:48:01;;;;;;;19.20;4.37;;;;;;;;;;5034614;28;20465;-83
2022/12/30 03:50:27;;;;;;;19.80;4.30;;;;;;;;;;5038345;28;20449;-83
2022/12/30 03:52:55;;;;;;;15.47;4.60;;;;;;;;;;5038696;28;20487;-83
2022/12/30 03:55:21;;;;;;;12.17;4.30;;;;;;;;;;5039275;28;20465;-83
2022/12/30 03:57:47;;;;;;;15.30;5.90;;;;;;;;;;5035385;28;20480;-83
2022/12/30 04:00:15;;;;;;;18.73;7.13;;;;;;;;;;5035376;28;20464;-83
2022/12/30 04:02:41;;;;;;;14.37;4.80;;;;;;;;;;5035100;28;20472;-82
2022/12/30 04:05:08;;;;;;;14.47;4.93;;;;;;;;;;5034001;28;20459;-83
2022/12/30 04:07:36;;;;;;;20.00;5.90;;;;;;;;;;5033074;28;20470;-83
2022/12/30 04:10:04;;;;;;;13.83;4.67;;;;;;;;;;5035101;28;20980;-83
2022/12/30 04:12:31;;;;;;;15.27;5.57;;;;;;;;;;5038752;28;20807;-83
2022/12/30 04:14:57;;;;;;;11.77;5.20;;;;;;;;;;5039437;28;20457;-83
2022/12/30 04:17:24;;;;;;;13.53;5.60;;;;;;;;;;5033402;28;20473;-82
2022/12/30 04:19:50;;;;;;;15.40;6.67;;;;;;;;;;5036459;28;20473;-82
2022/12/30 04:22:16;;;;;;;13.53;6.87;;;;;;;;;;5042165;28;20857;-83
2022/12/30 04:24:43;;;;;;;16.60;5.83;;;;;;;;;;5036717;28;20495;-83
2022/12/30 04:27:11;;;;;;;21.13;6.27;;;;;;;;;;5033264;28;20485;-83
2022/12/30 04:29:37;;;;;;;11.00;4.60;;;;;;;;;;5034238;28;20453;-83
2022/12/30 04:32:03;;;;;;;20.07;5.27;;;;;;;;;;5040968;28;21065;-83
2022/12/30 04:34:30;;;;;;;11.43;5.53;;;;;;;;;;5039086;28;20448;-83
2022/12/30 04:36:56;;;;;;;18.00;5.50;;;;;;;;;;5036960;28;20563;-83
2022/12/30 04:39:23;;;;;;;11.90;5.50;;;;;;;;;;5040193;28;20491;-83
2022/12/30 04:41:53;;;;;;;17.13;6.40;;;;;;;;;;5040526;28;20551;-82
2022/12/30 04:44:21;;;;;;;14.83;5.30;;;;;;;;;;5037735;28;20462;-83
2022/12/30 04:46:47;;;;;;;14.73;5.40;;;;;;;;;;5034736;28;20488;-83
2022/12/30 04:49:13;;;;;;;11.80;5.90;;;;;;;;;;5041860;28;20473;-83
2022/12/30 04:51:40;;;;;;;12.33;5.67;;;;;;;;;;5043518;28;20476;-83
2022/12/30 04:54:06;;;;;;;15.03;5.47;;;;;;;;;;5040106;28;20447;-83
2022/12/30 04:56:32;;;;;;;22.43;7.07;;;;;;;;;;5042199;28;20471;-83
2022/12/30 04:58:59;;;;;;;20.87;5.43;;;;;;;;;;5037566;28;20500;-82
2022/12/30 05:01:27;;;;;;;13.53;6.00;;;;;;;;;;5037615;28;20472;-83
2022/12/30 05:03:53;;;;;;;18.23;5.57;;;;;;;;;;5037061;28;20520;-83
2022/12/30 05:06:20;;;;;;;22.40;6.03;;;;;;;;;;5037155;28;20958;-83
2022/12/30 05:08:46;;;;;;;18.17;6.50;;;;;;;;;;5041300;28;20985;-83
2022/12/30 05:11:13;;;;;;;12.90;6.80;;;;;;;;;;5040561;28;20942;-83
2022/12/30 05:13:39;;;;;;;15.73;6.17;;;;;;;;;;5037196;28;20468;-83
2022/12/30 05:16:06;;;;;;;11.37;4.90;;;;;;;;;;5034332;28;20504;-83
2022/12/30 05:18:33;;;;;;;14.37;6.17;;;;;;;;;;5039168;28;20479;-83
2022/12/30 05:20:59;;;;;;;15.60;5.40;;;;;;;;;;5040433;28;20457;-83
2022/12/30 05:26:17;;;;;;;18.17;6.53;;;;;;;;;;5042300;28;20460;-83
2022/12/30 05:28:44;;;;;;;14.43;5.73;;;;;;;;;;5035729;28;20470;-82
2022/12/30 05:31:10;;;;;;;17.20;6.10;;;;;;;;;;5028740;28;20454;-82
2022/12/30 05:33:38;;;;;;;11.60;5.23;;;;;;;;;;5039777;28;20468;-82
2022/12/30 05:36:05;;;;;;;11.97;6.07;;;;;;;;;;5037041;28;20448;-82
2022/12/30 05:38:31;;;;;;;12.27;4.93;;;;;;;;;;5038197;28;20485;-83
2022/12/30 05:40:58;;;;;;;13.07;5.53;;;;;;;;;;5039894;28;20446;-83
2022/12/30 05:43:24;;;;;;;10.80;5.60;;;;;;;;;;5042873;28;20921;-83
2022/12/30 05:45:51;;;;;;;16.37;5.50;;;;;;;;;;5036734;28;20453;-83
2022/12/30 05:48:17;;;;;;;12.10;5.70;;;;;;;;;;5039565;28;20480;-83
2022/12/30 05:50:49;;;;;;;13.97;5.33;;;;;;;;;;5041751;28;20467;-82
2022/12/30 05:53:16;;;;;;;14.07;7.37;;;;;;;;;;5039097;28;20473;-83
2022/12/30 05:55:43;;;;;;;14.20;5.87;;;;;;;;;;5041125;28;20464;-82
2022/12/30 05:58:09;;;;;;;17.17;5.83;;;;;;;;;;5039407;28;20482;-83
2022/12/30 06:00:35;;;;;;;12.40;5.00;;;;;;;;;;5042246;28;20466;-83
2022/12/30 06:03:02;;;;;;;12.90;5.67;;;;;;;;;;5041092;28;20473;-83
2022/12/30 06:05:28;;;;;;;11.63;6.20;;;;;;;;;;5030329;28;20463;-83
2022/12/30 06:07:56;;;;;;;14.90;7.27;;;;;;;;;;5039311;28;20486;-83
2022/12/30 06:10:23;;;;;;;16.17;5.30;;;;;;;;;;5035742;28;20453;-83
2022/12/30 06:12:49;;;;;;;15.23;5.30;;;;;;;;;;5036643;28;20478;-83
2022/12/30 06:15:16;;;;;;;12.17;7.83;;;;;;;;;;5036957;28;20464;-83
2022/12/30 06:17:42;;;;;;;18.57;6.37;;;;;;;;;;5041858;28;20509;-83
2022/12/30 06:20:09;;;;;;;19.30;6.40;;;;;;;;;;5034971;28;20562;-83
2022/12/30 06:22:35;;;;;;;23.53;6.53;;;;;;;;;;5036823;28;20480;-83
2022/12/30 06:25:03;;;;;;;12.83;5.83;;;;;;;;;;5042456;28;20453;-83
2022/12/30 06:27:30;;;;;;;14.13;6.43;;;;;;;;;;5039429;28;20481;-83
2022/12/30 06:29:56;;;;;;;15.57;6.20;;;;;;;;;;5040189;28;20457;-83
2022/12/30 06:32:22;;;;;;;25.43;6.60;;;;;;;;;;5038783;28;20484;-83
2022/12/30 06:34:50;;;;;;;17.93;6.43;;;;;;;;;;5039076;28;20468;-82
2022/12/30 06:37:16;;;;;;;18.60;6.60;;;;;;;;;;5033742;28;20473;-83
2022/12/30 06:39:42;;;;;;;10.27;5.73;;;;;;;;;;5041421;28;20483;-83
2022/12/30 06:42:11;;;;;;;24.07;6.03;;;;;;;;;;5036708;28;20583;-83
2022/12/30 06:44:37;;;;;;;15.53;6.90;;;;;;;;;;5041552;28;20457;-83
2022/12/30 06:47:04;;;;;;;15.77;5.50;;;;;;;;;;5040635;28;20479;-83
2022/12/30 06:49:31;;;;;;;14.33;7.23;;;;;;;;;;5034496;28;20995;-83
2022/12/30 06:51:59;;;;;;;15.90;6.07;;;;;;;;;;5039545;28;20481;-82
2022/12/30 06:54:25;;;;;;;13.80;6.60;;;;;;;;;;5034747;28;20449;-83
2022/12/30 06:56:51;;;;;;;17.63;5.83;;;;;;;;;;5036533;28;20468;-83
2022/12/30 06:59:19;;;;;;;18.67;6.00;;;;;;;;;;5035635;28;20507;-83
2022/12/30 07:01:45;;;;;;;15.73;5.17;;;;;;;;;;5038313;28;20484;-83
2022/12/30 07:04:12;;;;;;;11.50;4.50;;;;;;;;;;5040714;28;20443;-83
2022/12/30 07:06:38;;;;;;;15.43;5.57;;;;;;;;;;5037251;28;21006;-83
2022/12/30 07:09:05;;;;;;;11.80;4.83;;;;;;;;;;5035973;28;20495;-83
2022/12/30 07:11:32;;;;;;;16.53;4.13;;;;;;;;;;5035412;28;20442;-83
2022/12/30 07:13:58;;;;;;;15.63;5.13;;;;;;;;;;5036821;28;20449;-83
2022/12/30 07:16:26;;;;;;;18.53;5.17;;;;;;;;;;5036726;28;20450;-83
2022/12/30 07:18:52;;;;;;;10.33;4.90;;;;;;;;;;5036750;28;20465;-83
2022/12/30 07:21:20;;;;;;;10.57;5.10;;;;;;;;;;5039848;28;20476;-83
2022/12/30 07:23:46;;;;;;;16.27;4.27;;;;;;;;;;5037110;28;20465;-83
2022/12/30 07:26:12;;;;;;;12.40;5.00;;;;;;;;;;5039666;28;20445;-83
2022/12/30 07:28:38;;;;;;;24.07;4.23;;;;;;;;;;5017626;28;20489;-83
2022/12/30 07:31:05;;;;;;;14.67;4.70;;;;;;;;;;5017266;28;20455;-83
2022/12/30 07:33:33;;;;;;;10.87;4.77;;;;;;;;;;5014655;28;20473;-83
2022/12/30 07:35:59;;;;;;;11.73;4.60;;;;;;;;;;5010529;28;20460;-83
2022/12/30 07:38:25;;;;;;;11.03;3.93;;;;;;;;;;5014647;28;20477;-83
2022/12/30 07:40:52;;;;;;;17.23;4.23;;;;;;;;;;5017769;28;20486;-83
2022/12/30 07:43:18;;;;;;;22.80;4.50;;;;;;;;;;5015309;28;20492;-83
2022/12/30 07:45:44;;;;;;;20.23;4.80;;;;;;;;;;5018315;28;20835;-83
2022/12/30 07:48:11;;;;;;;19.20;4.27;;;;;;;;;;5018213;28;20469;-83
2022/12/30 07:50:40;;;;;;;14.27;4.13;;;;;;;;;;5014964;28;20458;-83
2022/12/30 07:53:06;;;;;;;15.30;4.87;;;;;;;;;;5020690;28;20470;-83
2022/12/30 07:55:33;;;;;;;15.20;4.50;;;;;;;;;;5018335;28;20458;-83
2022/12/30 07:58:00;;;;;;;14.07;4.53;;;;;;;;;;5016884;28;20490;-83
2022/12/30 08:00:26;;;;;;;17.67;4.60;;;;;;;;;;5018785;28;20481;-83
2022/12/30 08:02:53;;;;;;;12.00;3.30;;;;;;;;;;5016601;28;20481;-83
2022/12/30 08:05:19;;;;;;;15.63;4.50;;;;;;;;;;5014436;28;20468;-83
2022/12/30 08:07:47;;;;;;;14.53;4.20;;;;;;;;;;5005237;28;20481;-83
2022/12/30 08:10:13;;;;;;;14.97;4.40;;;;;;;;;;5017683;28;21030;-83
2022/12/30 08:12:39;;;;;;;18.83;4.90;;;;;;;;;;5022592;28;20469;-83
2022/12/30 08:15:06;;;;;;;16.93;4.70;;;;;;;;;;5019738;28;20481;-83
2022/12/30 08:17:32;;;;;;;16.57;4.60;;;;;;;;;;5017040;28;20489;-82
2022/12/30 08:19:59;;;;;;;20.37;5.30;;;;;;;;;;5018177;28;20551;-83
2022/12/30 08:22:25;;;;;;;14.20;4.73;;;;;;;;;;5020465;28;20474;-83
2022/12/30 08:24:53;;;;;;;15.37;4.80;;;;;;;;;;5015050;28;20480;-83
2022/12/30 08:27:19;;;;;;;18.50;4.83;;;;;;;;;;5016785;28;20462;-82
2022/12/30 08:29:46;;;;;;;25.37;5.43;;;;;;;;;;5016482;28;20474;-82
2022/12/30 08:32:12;;;;;;;18.03;5.13;;;;;;;;;;5016623;28;20461;-82
2022/12/30 08:34:38;;;;;;;14.50;4.77;;;;;;;;;;5023297;28;20511;-82
2022/12/30 08:37:05;;;;;;;15.17;4.63;;;;;;;;;;5023687;28;20450;-83
2022/12/30 08:39:31;;;;;;;31.57;6.33;;;;;;;;;;5020292;28;20478;-83
2022/12/30 08:41:59;;;;;;;16.90;4.23;;;;;;;;;;5020143;28;20453;-83
2022/12/30 08:44:25;;;;;;;13.50;4.77;;;;;;;;;;5017717;28;20551;-83
2022/12/30 08:46:52;;;;;;;15.03;4.57;;;;;;;;;;5016481;28;20485;-83
2022/12/30 08:49:18;;;;;;;16.40;5.43;;;;;;;;;;5019952;28;20543;-83
2022/12/30 08:51:45;;;;;;;13.73;4.83;;;;;;;;;;5020274;28;20449;-83
2022/12/30 08:54:11;;;;;;;14.03;4.40;;;;;;;;;;5016203;28;20486;-83
2022/12/30 08:56:39;;;;;;;17.83;6.10;;;;;;;;;;5016346;28;20880;-83
2022/12/30 08:59:07;;;;;;;19.93;5.30;;;;;;;;;;5016293;28;20505;-83
2022/12/30 09:01:36;;;;;;;15.40;4.33;;;;;;;;;;5021963;28;20469;-83
2022/12/30 09:04:06;;;;;;;17.33;5.17;;;;;;;;;;5017602;28;20486;-83
2022/12/30 09:06:33;;;;;;;12.13;6.07;;;;;;;;;;5018587;28;20519;-83
2022/12/30 09:09:00;;;;;;;14.67;4.40;;;;;;;;;;5019468;28;20488;-83
2022/12/30 09:11:28;;;;;;;21.10;4.13;;;;;;;;;;5019359;28;20448;-83
2022/12/30 09:13:55;;;;;;;10.93;4.33;;;;;;;;;;5014072;28;20505;-83
2022/12/30 09:16:23;;;;;;;8.63;3.77;;;;;;;;;;5022543;28;20450;-83
2022/12/30 09:18:50;;;;;;;9.20;3.53;;;;;;;;;;5011538;28;20489;-83
2022/12/30 09:21:16;;;;;;;11.23;4.33;;;;;;;;;;5020335;28;20489;-83
2022/12/30 09:23:44;;;;;;;19.33;5.50;;;;;;;;;;5017152;28;20528;-83
2022/12/30 09:26:14;;;;;;;16.20;4.43;;;;;;;;;;5017657;28;20825;-83
2022/12/30 09:28:40;;;;;;;8.67;3.53;;;;;;;;;;5018762;28;20475;-82
2022/12/30 09:31:06;;;;;;;12.73;3.53;;;;;;;;;;5012955;28;20445;-82
2022/12/30 09:33:34;;;;;;;8.40;3.17;;;;;;;;;;5009254;28;20461;-82
2022/12/30 09:36:00;;;;;;;11.80;3.10;;;;;;;;;;5020012;28;20844;-83
2022/12/30 09:38:27;;;;;;;9.80;3.60;;;;;;;;;;5016774;28;20478;-83
2022/12/30 09:40:56;;;;;;;17.90;3.77;;;;;;;;;;5017084;28;20490;-83
2022/12/30 09:43:25;;;;;;;13.37;2.93;;;;;;;;;;5016324;28;20465;-83
2022/12/30 09:46:12;;;;;;;10.50;2.90;;;;;;;;;;5016693;28;20442;-83
2022/12/30 09:48:42;;;;;;;16.80;3.80;;;;;;;;;;5011197;28;21071;-83
2022/12/30 09:51:11;;;;;;;12.33;3.80;;;;;;;;;;5011532;28;20461;-83
2022/12/30 09:53:41;;;;;;;21.13;3.40;;;;;;;;;;5022174;28;20465;-83
2022/12/30 09:56:13;;;;;;;6.63;3.30;;;;;;;;;;5021500;28;20488;-83
2022/12/30 09:58:39;;;;;;;10.73;3.87;;;;;;;;;;5016906;28;20481;-83
2022/12/30 10:01:08;;;;;;;10.43;3.43;;;;;;;;;;5015625;28;20486;-83
2022/12/30 10:03:36;;;;;;;10.20;2.70;;;;;;;;;;5016964;28;20470;-83
2022/12/30 10:06:08;;;;;;;7.93;3.17;;;;;;;;;;5013323;28;20442;-83
2022/12/30 10:08:40;;;;;;;11.63;2.90;;;;;;;;;;5012898;28;20997;-83
2022/12/30 10:11:13;;;;;;;11.03;3.00;;;;;;;;;;5020849;28;20456;-83
2022/12/30 10:13:44;;;;;;;18.00;3.77;;;;;;;;;;5019942;28;20471;-83
2022/12/30 10:16:15;;;;;;;11.97;2.27;;;;;;;;;;5017740;28;21034;-83
2022/12/30 10:18:47;;;;;;;14.47;3.73;;;;;;;;;;5018836;28;20889;-83
2022/12/30 10:21:21;;;;;;;16.30;2.87;;;;;;;;;;5015209;28;20568;-83
2022/12/30 10:23:52;;;;;;;15.80;3.13;;;;;;;;;;5016388;28;20473;-83
2022/12/30 10:26:21;;;;;;;9.83;3.93;;;;;;;;;;5013343;28;20457;-83
2022/12/30 10:28:49;;;;;;;13.63;3.23;;;;;;;;;;5016249;28;21000;-83
2022/12/30 10:31:18;;;;;;;11.07;3.70;;;;;;;;;;5017690;28;20446;-83
2022/12/30 10:33:45;;;;;;;7.27;3.10;;;;;;;;;;5021509;28;20473;-83
2022/12/30 10:36:14;;;;;;;5.33;2.57;;;;;;;;;;5033950;28;20468;-83
2022/12/30 10:38:42;;;;;;;7.43;3.10;;;;;;;;;;5039106;28;20527;-83
2022/12/30 10:41:15;;;;;;;8.13;2.70;;;;;;;;;;5032871;28;20902;-82
2022/12/30 10:43:49;;;;;;;10.43;4.23;;;;;;;;;;5036540;28;20476;-83
2022/12/30 10:46:23;;;;;;;10.50;3.33;;;;;;;;;;5035303;28;20457;-83
2022/12/30 10:48:56;;;;;;;9.37;2.70;;;;;;;;;;5037929;28;20468;-83
2022/12/30 10:51:24;;;;;;;13.07;4.80;;;;;;;;;;5020006;28;20942;-83
2022/12/30 10:53:53;;;;;;;6.23;2.43;;;;;;;;;;5038430;28;20476;-83
2022/12/30 10:56:22;;;;;;;9.50;2.87;;;;;;;;;;5037279;28;20461;-83
2022/12/30 10:58:49;;;;;;;9.60;2.50;;;;;;;;;;5033874;28;20508;-83
2022/12/30 11:01:17;;;;;;;12.03;3.83;;;;;;;;;;5036036;28;20491;-83
2022/12/30 11:03:45;;;;;;;10.77;2.70;;;;;;;;;;5036575;28;20491;-83
2022/12/30 11:06:17;;;;;;;9.97;2.80;;;;;;;;;;5035166;28;20459;-83
2022/12/30 11:08:43;;;;;;;13.97;3.37;;;;;;;;;;5036351;28;20477;-83
2022/12/30 11:11:12;;;;;;;5.03;2.10;;;;;;;;;;5036019;28;20473;-83
2022/12/30 11:16:24;;;;;;;11.00;2.93;;;;;;;;;;5033253;28;20524;-83
2022/12/30 11:18:51;;;;;;;7.10;2.83;;;;;;;;;;5029994;28;20474;-83
2022/12/30 11:21:23;;;;;;;4.50;2.00;;;;;;;;;;5033239;28;20491;-83
2022/12/30 11:23:53;;;;;;;7.83;2.07;;;;;;;;;;5036662;28;20497;-83
2022/12/30 11:26:22;;;;;;;9.53;2.67;;;;;;;;;;5037261;28;20764;-83
2022/12/30 11:28:51;;;;;;;3.80;1.80;;;;;;;;;;5033899;28;20477;-83
2022/12/30 11:31:18;;;;;;;8.27;4.17;;;;;;;;;;5038342;28;20453;-83
2022/12/30 11:33:48;;;;;;;7.07;2.30;;;;;;;;;;5037330;28;20518;-83
2022/12/30 11:36:17;;;;;;;6.83;1.83;;;;;;;;;;5033923;28;20463;-83
2022/12/30 11:38:44;;;;;;;16.87;2.23;;;;;;;;;;5032694;28;20472;-84
2022/12/30 11:41:35;;;;;;;9.57;2.37;;;;;;;;;;5038357;28;20488;-83
2022/12/30 11:44:23;;;;;;;10.50;2.83;;;;;;;;;;5036931;28;20476;-83
2022/12/30 11:46:51;;;;;;;5.90;2.27;;;;;;;;;;5032324;28;20466;-83
2022/12/30 11:49:33;;;;;;;11.77;2.93;;;;;;;;;;5034561;28;20526;-84
2022/12/30 11:52:06;;;;;;;6.37;2.40;;;;;;;;;;5031128;28;20469;-83
2022/12/30 11:54:33;;;;;;;4.30;2.20;;;;;;;;;;5033866;28;20488;-84
2022/12/30 11:57:04;;;;;;;11.80;2.90;;;;;;;;;;5034542;28;20460;-84
2022/12/30 11:59:32;;;;;;;3.67;1.80;;;;;;;;;;5034353;28;20477;-83
2022/12/30 12:02:00;;;;;;;5.50;2.30;;;;;;;;;;5035183;28;20550;-83
2022/12/30 12:04:29;;;;;;;6.93;2.20;;;;;;;;;;5031176;28;20526;-83
2022/12/30 12:06:56;;;;;;;3.50;1.47;;;;;;;;;;5031546;28;20450;-83
2022/12/30 12:09:26;;;;;;;8.13;1.97;;;;;;;;;;5036150;28;20469;-83
2022/12/30 12:11:52;;;;;;;11.27;2.53;;;;;;;;;;5037866;28;20463;-83
2022/12/30 12:14:22;;;;;;;11.40;2.57;;;;;;;;;;5036916;28;20476;-83
2022/12/30 12:16:51;;;;;;;9.07;2.37;;;;;;;;;;5037706;28;20524;-83
2022/12/30 12:19:22;;;;;;;5.37;2.03;;;;;;;;;;5028982;28;20481;-83
2022/12/30 12:21:51;;;;;;;7.07;2.20;;;;;;;;;;5033681;28;20465;-83
2022/12/30 12:24:21;;;;;;;6.90;2.40;;;;;;;;;;5034577;28;20476;-83
2022/12/30 12:26:50;;;;;;;5.17;2.30;;;;;;;;;;5038494;28;20471;-83
2022/12/30 12:29:17;;;;;;;9.80;2.47;;;;;;;;;;5031731;28;21010;-83
2022/12/30 12:32:02;;;;;;;4.47;2.30;;;;;;;;;;5035731;28;20457;-83
2022/12/30 12:34:37;;;;;;;4.63;1.80;;;;;;;;;;5029865;28;20461;-83
2022/12/30 12:37:12;;;;;;;10.40;2.37;;;;;;;;;;5032882;28;20838;-83
2022/12/30 12:39:46;;;;;;;5.80;2.10;;;;;;;;;;5032554;28;20532;-83
2022/12/30 12:42:14;;;;;;;5.77;2.20;;;;;;;;;;5030135;28;20468;-83
2022/12/30 12:45:05;;;;;;;3.93;1.80;;;;;;;;;;5030253;28;20480;-83
2022/12/30 12:47:47;;;;;;;5.13;1.87;;;;;;;;;;5036813;28;20531;-84
2022/12/30 12:50:28;;;;;;;9.77;2.57;;;;;;;;;;5030440;28;20470;-84
2022/12/30 12:53:03;;;;;;;4.00;2.13;;;;;;;;;;5033643;28;20452;-83
2022/12/30 12:55:38;;;;;;;5.17;2.13;;;;;;;;;;5031874;28;20494;-83
2022/12/30 12:58:07;;;;;;;7.40;2.60;;;;;;;;;;5035592;28;20472;-83
2022/12/30 13:00:39;;;;;;;5.00;1.90;;;;;;;;;;5038836;28;20468;-83
2022/12/30 13:03:21;;;;;;;4.77;2.30;;;;;;;;;;5040089;28;21136;-83
2022/12/30 13:05:49;;;;;;;5.57;2.07;;;;;;;;;;5035462;28;20965;-84
2022/12/30 13:08:26;;;;;;;4.57;2.30;;;;;;;;;;5041066;28;20481;-83
2022/12/30 13:10:58;;;;;;;3.53;2.20;;;;;;;;;;5035708;28;20436;-83
2022/12/30 13:13:30;;;;;;;12.57;2.30;;;;;;;;;;5036319;28;20814;-83
2022/12/30 13:15:58;;;;;;;5.53;1.70;;;;;;;;;;5037403;28;20488;-83
2022/12/30 13:18:25;;;;;;;7.40;2.60;;;;;;;;;;5037556;28;20465;-83
2022/12/30 13:20:53;;;;;;;10.23;3.20;;;;;;;;;;5041551;28;20480;-83
2022/12/30 13:23:24;;;;;;;3.57;1.90;;;;;;;;;;5042354;28;20448;-83
2022/12/30 13:25:53;;;;;;;12.53;2.43;;;;;;;;;;5039171;28;20463;-83
2022/12/30 13:28:21;;;;;;;7.23;2.20;;;;;;;;;;5039503;28;20857;-84
2022/12/30 13:30:52;;;;;;;5.63;1.83;;;;;;;;;;5042200;28;20461;-83
2022/12/30 13:33:22;;;;;;;7.70;2.67;;;;;;;;;;5039582;28;20469;-83
2022/12/30 13:35:53;;;;;;;11.40;2.20;;;;;;;;;;5038406;28;20454;-83
2022/12/30 13:38:28;;;;;;;3.80;1.73;;;;;;;;;;5040886;28;20483;-83
2022/12/30 13:41:01;;;;;;;3.37;1.83;;;;;;;;;;5038218;28;20531;-83
2022/12/30 13:43:31;;;;;;;6.20;2.40;;;;;;;;;;5035329;28;20454;-83
2022/12/30 13:45:59;;;;;;;6.83;2.37;;;;;;;;;;5036624;28;20485;-83
2022/12/30 13:48:28;;;;;;;11.03;2.33;;;;;;;;;;5030779;28;20506;-83
2022/12/30 13:51:02;;;;;;;7.50;2.20;;;;;;;;;;5033900;28;20534;-83
2022/12/30 13:53:35;;;;;;;6.73;2.20;;;;;;;;;;5033346;28;20486;-83
2022/12/30 13:56:02;;;;;;;8.10;2.40;;;;;;;;;;5037411;28;20452;-83
2022/12/30 13:58:30;;;;;;;6.80;1.87;;;;;;;;;;5036076;28;20464;-83
2022/12/30 14:01:11;;;;;;;9.03;2.60;;;;;;;;;;5035553;28;20453;-83
2022/12/30 14:03:37;;;;;;;8.33;1.97;;;;;;;;;;5039203;28;20461;-83
2022/12/30 14:06:24;;;;;;;7.93;2.07;;;;;;;;;;5029354;28;20450;-83
2022/12/30 14:09:09;;;;;;;6.83;2.40;;;;;;;;;;5037172;28;20855;-84
2022/12/30 14:11:35;;;;;;;6.97;1.70;;;;;;;;;;5033590;28;20442;-83
2022/12/30 14:14:17;;;;;;;6.17;2.57;;;;;;;;;;5037538;28;20465;-83
2022/12/30 14:16:52;;;;;;;5.80;2.27;;;;;;;;;;5033882;28;20537;-83
2022/12/30 14:19:21;;;;;;;4.57;2.50;;;;;;;;;;5037733;28;20507;-83
2022/12/30 14:21:50;;;;;;;9.50;2.80;;;;;;;;;;5029843;28;20484;-83
2022/12/30 14:24:34;;;;;;;3.57;2.27;;;;;;;;;;5035941;28;20492;-83
2022/12/30 14:27:02;;;;;;;6.13;1.67;;;;;;;;;;5031627;28;20460;-84
2022/12/30 14:29:30;;;;;;;3.50;1.97;;;;;;;;;;5036545;28;20464;-83
2022/12/30 14:31:58;;;;;;;5.40;2.47;;;;;;;;;;5033615;28;20813;-83
2022/12/30 14:34:28;;;;;;;8.63;3.07;;;;;;;;;;5037048;28;20473;-83
2022/12/30 14:37:02;;;;;;;6.37;2.27;;;;;;;;;;5036294;28;20465;-83
2022/12/30 14:39:29;;;;;;;6.13;3.07;;;;;;;;;;5031951;28;20476;-84
2022/12/30 14:41:56;;;;;;;4.10;1.90;;;;;;;;;;5034449;28;20488;-83
2022/12/30 14:44:26;;;;;;;6.23;2.20;;;;;;;;;;5036490;28;20846;-83
2022/12/30 14:46:53;;;;;;;6.40;2.27;;;;;;;;;;5034156;28;20468;-83
2022/12/30 14:49:22;;;;;;;12.40;2.63;;;;;;;;;;5035742;28;20485;-84
2022/12/30 14:51:51;;;;;;;4.90;2.63;;;;;;;;;;5020040;28;20790;-84
2022/12/30 14:54:18;;;;;;;4.60;2.10;;;;;;;;;;5011717;28;20996;-83
2022/12/30 14:56:48;;;;;;;9.03;2.90;;;;;;;;;;5016252;28;20525;-83
2022/12/30 14:59:16;;;;;;;4.73;2.67;;;;;;;;;;5012819;28;20470;-84
2022/12/30 15:01:44;;;;;;;4.30;2.83;;;;;;;;;;5012573;28;20481;-83
2022/12/30 15:04:12;;;;;;;5.23;2.17;;;;;;;;;;5014847;28;20474;-83
2022/12/30 15:06:41;;;;;;;5.37;2.67;;;;;;;;;;5030407;28;20489;-84
2022/12/30 15:09:09;;;;;;;6.03;4.50;;;;;;;;;;5013857;28;20560;-84
2022/12/30 15:11:36;;;;;;;7.60;4.23;;;;;;;;;;5014372;28;20831;-83
2022/12/30 15:14:02;;;;;;;14.80;10.37;;;;;;;;;;5018423;28;20470;-83
2022/12/30 15:16:29;;;;;;;16.57;14.87;;;;;;;;;;5014895;28;20458;-83
2022/12/30 15:18:58;;;;;;;5.70;3.20;;;;;;;;;;5017102;28;20469;-83
2022/12/30 15:21:25;;;;;;;5.53;2.00;;;;;;;;;;5015295;28;20507;-83
2022/12/30 15:24:11;;;;;;;8.23;3.57;;;;;;;;;;5013748;28;20463;-83
2022/12/30 15:26:39;;;;;;;8.60;3.43;;;;;;;;;;5012579;28;20461;-84
2022/12/30 15:29:06;;;;;;;7.93;2.53;;;;;;;;;;5014034;28;20481;-83
2022/12/30 15:31:33;;;;;;;5.10;3.70;;;;;;;;;;5012979;28;20451;-83
2022/12/30 15:34:01;;;;;;;5.83;2.60;;;;;;;;;;5014084;28;20490;-83
2022/12/30 15:36:28;;;;;;;3.40;2.20;;;;;;;;;;5013847;28;20459;-83
2022/12/30 15:38:56;;;;;;;6.50;4.63;;;;;;;;;;5014811;28;20469;-83
2022/12/30 15:41:24;;;;;;;5.93;4.57;;;;;;;;;;5015017;28;20442;-83